sensor_id;sensor_type;location;lat;lon;timestamp;pressure;altitude;pressure_sealevel;temperature;humidity
51972;BME280;37991;49.662;10.060;2022-12-04T00:01:18;99189.75;;;2.02;95.10
51972;BME280;37991;49.662;10.060;2022-12-04T00:03:44;99179.44;;;2.00;95.69
51972;BME280;37991;49.662;10.060;2022-12-04T00:06:16;99183.63;;;2.04;95.06
51972;BME280;37991;49.662;10.060;2022-12-04T00:08:42;99172.25;;;2.08;94.72
51972;BME280;37991;49.662;10.060;2022-12-04T00:11:10;99163.69;;;2.08;94.81
51972;BME280;37991;49.662;10.060;2022-12-04T00:13:37;99169.56;;;2.12;95.69
51972;BME280;37991;49.662;10.060;2022-12-04T00:16:05;99171.25;;;2.13;94.95
51972;BME280;37991;49.662;10.060;2022-12-04T00:18:30;99164.31;;;2.13;95.17
51972;BME280;37991;49.662;10.060;2022-12-04T00:20:56;99167.84;;;2.10;95.41
51972;BME280;37991;49.662;10.060;2022-12-04T00:23:21;99154.91;;;2.12;95.99
51972;BME280;37991;49.662;10.060;2022-12-04T00:25:47;99156.66;;;2.12;95.32
51972;BME280;37991;49.662;10.060;2022-12-04T00:28:17;99150.75;;;2.08;94.25
51972;BME280;37991;49.662;10.060;2022-12-04T00:30:44;99152.34;;;2.10;94.81
51972;BME280;37991;49.662;10.060;2022-12-04T00:33:13;99156.69;;;2.10;94.89
51972;BME280;37991;49.662;10.060;2022-12-04T00:35:39;99145.69;;;2.05;93.89
51972;BME280;37991;49.662;10.060;2022-12-04T00:38:04;99140.34;;;2.09;94.50
51972;BME280;37991;49.662;10.060;2022-12-04T00:40:30;99132.66;;;2.08;93.34
51972;BME280;37991;49.662;10.060;2022-12-04T00:42:55;99116.91;;;1.92;93.58
51972;BME280;37991;49.662;10.060;2022-12-04T00:45:20;99121.50;;;1.84;93.66
51972;BME280;37991;49.662;10.060;2022-12-04T00:47:46;99124.22;;;1.81;94.86
51972;BME280;37991;49.662;10.060;2022-12-04T00:50:11;99120.25;;;1.94;95.11
51972;BME280;37991;49.662;10.060;2022-12-04T00:52:37;99113.75;;;1.84;94.27
51972;BME280;37991;49.662;10.060;2022-12-04T00:55:02;99118.19;;;1.80;95.30
51972;BME280;37991;49.662;10.060;2022-12-04T00:57:28;99124.09;;;1.84;95.83
51972;BME280;37991;49.662;10.060;2022-12-04T00:59:54;99128.41;;;1.83;95.59
51972;BME280;37991;49.662;10.060;2022-12-04T01:02:19;99137.91;;;1.83;95.56
51972;BME280;37991;49.662;10.060;2022-12-04T01:04:45;99139.66;;;1.82;95.80
51972;BME280;37991;49.662;10.060;2022-12-04T01:07:10;99136.91;;;1.87;96.40
51972;BME280;37991;49.662;10.060;2022-12-04T01:09:35;99142.78;;;1.91;96.33
51972;BME280;37991;49.662;10.060;2022-12-04T01:12:01;99148.13;;;1.86;96.00
51972;BME280;37991;49.662;10.060;2022-12-04T01:14:26;99135.81;;;1.93;96.68
51972;BME280;37991;49.662;10.060;2022-12-04T01:16:52;99135.63;;;1.97;96.04
51972;BME280;37991;49.662;10.060;2022-12-04T01:19:17;99129.72;;;1.95;95.27
51972;BME280;37991;49.662;10.060;2022-12-04T01:21:43;99138.19;;;1.99;96.61
51972;BME280;37991;49.662;10.060;2022-12-04T01:24:08;99140.88;;;1.96;96.26
51972;BME280;37991;49.662;10.060;2022-12-04T01:26:34;99147.38;;;2.06;96.82
51972;BME280;37991;49.662;10.060;2022-12-04T01:29:00;99141.59;;;1.99;95.98
51972;BME280;37991;49.662;10.060;2022-12-04T01:31:26;99137.09;;;2.04;96.29
51972;BME280;37991;49.662;10.060;2022-12-04T01:33:51;99132.91;;;2.02;96.17
51972;BME280;37991;49.662;10.060;2022-12-04T01:36:23;99126.69;;;2.06;95.52
51972;BME280;37991;49.662;10.060;2022-12-04T01:38:49;99114.38;;;1.91;96.09
51972;BME280;37991;49.662;10.060;2022-12-04T01:41:18;99118.56;;;1.93;96.74
51972;BME280;37991;49.662;10.060;2022-12-04T01:43:43;99109.91;;;1.94;96.87
51972;BME280;37991;49.662;10.060;2022-12-04T01:46:09;99101.69;;;1.84;97.15
51972;BME280;37991;49.662;10.060;2022-12-04T01:48:51;99107.75;;;1.83;97.17
51972;BME280;37991;49.662;10.060;2022-12-04T01:51:29;99109.38;;;1.86;97.88
51972;BME280;37991;49.662;10.060;2022-12-04T01:54:00;99114.47;;;1.88;98.06
51972;BME280;37991;49.662;10.060;2022-12-04T01:56:32;99118.47;;;1.96;98.45
51972;BME280;37991;49.662;10.060;2022-12-04T01:59:02;99113.91;;;2.03;99.07
51972;BME280;37991;49.662;10.060;2022-12-04T02:01:30;99107.78;;;2.05;98.77
51972;BME280;37991;49.662;10.060;2022-12-04T02:04:01;99108.06;;;1.98;98.11
51972;BME280;37991;49.662;10.060;2022-12-04T02:06:27;99099.22;;;2.03;98.39
51972;BME280;37991;49.662;10.060;2022-12-04T02:08:52;99102.59;;;2.05;98.96
51972;BME280;37991;49.662;10.060;2022-12-04T02:14:51;99114.25;;;2.16;98.75
51972;BME280;37991;49.662;10.060;2022-12-04T02:17:30;99117.75;;;2.15;98.64
51972;BME280;37991;49.662;10.060;2022-12-04T02:23:10;99112.00;;;2.08;98.16
51972;BME280;37991;49.662;10.060;2022-12-04T02:31:12;99112.88;;;2.07;97.58
51972;BME280;37991;49.662;10.060;2022-12-04T02:33:45;99102.50;;;2.08;98.41
51972;BME280;37991;49.662;10.060;2022-12-04T02:36:17;99098.16;;;2.09;99.00
51972;BME280;37991;49.662;10.060;2022-12-04T02:38:50;99090.47;;;2.07;97.89
51972;BME280;37991;49.662;10.060;2022-12-04T02:41:32;99095.69;;;2.06;98.41
51972;BME280;37991;49.662;10.060;2022-12-04T02:44:06;99100.63;;;2.12;98.96
51972;BME280;37991;49.662;10.060;2022-12-04T02:46:36;99097.13;;;2.13;98.69
51972;BME280;37991;49.662;10.060;2022-12-04T02:49:05;99094.41;;;2.16;98.20
51972;BME280;37991;49.662;10.060;2022-12-04T02:51:35;99102.28;;;2.13;98.46
51972;BME280;37991;49.662;10.060;2022-12-04T02:54:24;99107.31;;;2.18;98.91
51972;BME280;37991;49.662;10.060;2022-12-04T02:56:52;99105.44;;;2.21;98.11
51972;BME280;37991;49.662;10.060;2022-12-04T02:59:23;99108.31;;;2.14;97.79
51972;BME280;37991;49.662;10.060;2022-12-04T03:01:55;99112.47;;;2.18;97.48
51972;BME280;37991;49.662;10.060;2022-12-04T03:04:26;99096.88;;;2.19;97.86
51972;BME280;37991;49.662;10.060;2022-12-04T03:06:57;99094.78;;;2.07;97.12
51972;BME280;37991;49.662;10.060;2022-12-04T03:11:59;99084.78;;;2.20;97.68
51972;BME280;37991;49.662;10.060;2022-12-04T03:14:32;99071.34;;;2.12;96.22
51972;BME280;37991;49.662;10.060;2022-12-04T03:17:05;99069.97;;;2.03;96.43
51972;BME280;37991;49.662;10.060;2022-12-04T03:19:41;99073.34;;;2.05;96.84
51972;BME280;37991;49.662;10.060;2022-12-04T03:22:15;99079.47;;;2.02;97.57
51972;BME280;37991;49.662;10.060;2022-12-04T03:24:45;99074.09;;;2.07;97.62
51972;BME280;37991;49.662;10.060;2022-12-04T03:27:25;99075.72;;;2.09;97.99
51972;BME280;37991;49.662;10.060;2022-12-04T03:30:07;99079.09;;;1.90;97.44
51972;BME280;37991;49.662;10.060;2022-12-04T03:32:45;99082.66;;;1.87;98.03
51972;BME280;37991;49.662;10.060;2022-12-04T03:37:43;99073.38;;;2.03;99.01
51972;BME280;37991;49.662;10.060;2022-12-04T03:40:20;99078.19;;;2.13;98.24
51972;BME280;37991;49.662;10.060;2022-12-04T03:42:59;99071.63;;;2.04;98.04
51972;BME280;37991;49.662;10.060;2022-12-04T03:45:50;99075.38;;;1.97;97.71
51972;BME280;37991;49.662;10.060;2022-12-04T03:53:29;99071.41;;;1.88;98.54
51972;BME280;37991;49.662;10.060;2022-12-04T03:56:10;99069.81;;;1.85;98.42
51972;BME280;37991;49.662;10.060;2022-12-04T03:58:41;99069.81;;;1.85;97.70
51972;BME280;37991;49.662;10.060;2022-12-04T04:01:10;99067.22;;;1.85;98.43
51972;BME280;37991;49.662;10.060;2022-12-04T04:03:41;99065.34;;;1.89;99.20
51972;BME280;37991;49.662;10.060;2022-12-04T04:06:13;99054.78;;;1.95;98.72
51972;BME280;37991;49.662;10.060;2022-12-04T04:08:42;99053.06;;;1.94;98.33
51972;BME280;37991;49.662;10.060;2022-12-04T04:11:15;99052.31;;;1.92;98.17
51972;BME280;37991;49.662;10.060;2022-12-04T04:13:56;99048.94;;;1.90;98.74
51972;BME280;37991;49.662;10.060;2022-12-04T04:16:46;99047.78;;;1.97;99.59
51972;BME280;37991;49.662;10.060;2022-12-04T04:19:34;99042.81;;;1.93;98.45
51972;BME280;37991;49.662;10.060;2022-12-04T04:22:20;99045.22;;;1.97;99.25
51972;BME280;37991;49.662;10.060;2022-12-04T04:25:10;99039.78;;;2.03;99.55
51972;BME280;37991;49.662;10.060;2022-12-04T04:27:36;99033.63;;;2.07;100.00
51972;BME280;37991;49.662;10.060;2022-12-04T04:30:02;99038.63;;;2.10;100.00
51972;BME280;37991;49.662;10.060;2022-12-04T04:35:03;99039.56;;;2.09;98.94
51972;BME280;37991;49.662;10.060;2022-12-04T04:40:35;99050.56;;;2.15;99.11
51972;BME280;37991;49.662;10.060;2022-12-04T04:43:17;99052.22;;;2.16;98.16
51972;BME280;37991;49.662;10.060;2022-12-04T04:45:56;99056.50;;;2.17;98.32
51972;BME280;37991;49.662;10.060;2022-12-04T04:48:32;99059.94;;;2.17;98.95
51972;BME280;37991;49.662;10.060;2022-12-04T04:50:59;99058.06;;;2.21;98.72
51972;BME280;37991;49.662;10.060;2022-12-04T04:53:36;99058.81;;;2.23;98.53
51972;BME280;37991;49.662;10.060;2022-12-04T04:56:04;99054.56;;;2.22;97.15
51972;BME280;37991;49.662;10.060;2022-12-04T04:58:31;99053.91;;;2.17;97.30
51972;BME280;37991;49.662;10.060;2022-12-04T05:03:24;99060.19;;;2.11;97.36
51972;BME280;37991;49.662;10.060;2022-12-04T05:05:50;99053.38;;;2.08;98.07
51972;BME280;37991;49.662;10.060;2022-12-04T05:08:15;99064.31;;;2.15;98.26
51972;BME280;37991;49.662;10.060;2022-12-04T05:10:41;99070.41;;;2.14;98.30
51972;BME280;37991;49.662;10.060;2022-12-04T05:13:08;99080.97;;;2.08;97.71
51972;BME280;37991;49.662;10.060;2022-12-04T05:15:33;99083.19;;;2.17;98.28
51972;BME280;37991;49.662;10.060;2022-12-04T05:17:59;99083.31;;;2.14;98.78
51972;BME280;37991;49.662;10.060;2022-12-04T05:20:24;99073.88;;;2.13;99.21
51972;BME280;37991;49.662;10.060;2022-12-04T05:22:49;99087.03;;;2.07;98.36
51972;BME280;37991;49.662;10.060;2022-12-04T05:25:15;99083.31;;;2.14;98.81
51972;BME280;37991;49.662;10.060;2022-12-04T05:27:40;99082.34;;;2.17;98.82
51972;BME280;37991;49.662;10.060;2022-12-04T05:30:06;99084.75;;;2.21;99.57
51972;BME280;37991;49.662;10.060;2022-12-04T05:32:32;99080.41;;;2.22;98.79
51972;BME280;37991;49.662;10.060;2022-12-04T05:34:57;99082.88;;;2.25;99.35
51972;BME280;37991;49.662;10.060;2022-12-04T05:37:24;99083.84;;;2.22;98.78
51972;BME280;37991;49.662;10.060;2022-12-04T05:39:49;99077.03;;;2.20;98.55
51972;BME280;37991;49.662;10.060;2022-12-04T05:42:15;99074.78;;;2.12;98.35
51972;BME280;37991;49.662;10.060;2022-12-04T05:44:40;99080.78;;;2.13;98.65
51972;BME280;37991;49.662;10.060;2022-12-04T05:47:06;99074.59;;;2.17;98.51
51972;BME280;37991;49.662;10.060;2022-12-04T05:49:32;99078.88;;;2.18;98.60
51972;BME280;37991;49.662;10.060;2022-12-04T05:51:58;99082.88;;;2.25;99.34
51972;BME280;37991;49.662;10.060;2022-12-04T05:54:24;99079.50;;;2.23;99.25
51972;BME280;37991;49.662;10.060;2022-12-04T05:56:49;99084.44;;;2.29;98.71
51972;BME280;37991;49.662;10.060;2022-12-04T05:59:16;99079.25;;;2.29;98.97
51972;BME280;37991;49.662;10.060;2022-12-04T06:01:41;99086.91;;;2.32;99.33
51972;BME280;37991;49.662;10.060;2022-12-04T06:04:09;99083.72;;;2.25;98.00
51972;BME280;37991;49.662;10.060;2022-12-04T06:06:34;99083.56;;;2.30;97.99
51972;BME280;37991;49.662;10.060;2022-12-04T06:09:00;99084.44;;;2.29;98.31
51972;BME280;37991;49.662;10.060;2022-12-04T06:11:28;99090.69;;;2.23;98.53
51972;BME280;37991;49.662;10.060;2022-12-04T06:13:54;99088.72;;;2.30;99.16
51972;BME280;37991;49.662;10.060;2022-12-04T06:16:29;99089.81;;;2.24;98.81
51972;BME280;37991;49.662;10.060;2022-12-04T06:18:57;99081.97;;;2.26;98.08
51972;BME280;37991;49.662;10.060;2022-12-04T06:21:24;99081.56;;;2.15;98.23
51972;BME280;37991;49.662;10.060;2022-12-04T06:23:51;99083.44;;;2.11;98.89
51972;BME280;37991;49.662;10.060;2022-12-04T06:26:17;99085.47;;;2.25;98.33
51972;BME280;37991;49.662;10.060;2022-12-04T06:28:43;99075.97;;;2.03;97.86
51972;BME280;37991;49.662;10.060;2022-12-04T06:31:10;99088.50;;;2.14;98.27
51972;BME280;37991;49.662;10.060;2022-12-04T06:33:36;99083.00;;;2.00;98.19
51972;BME280;37991;49.662;10.060;2022-12-04T06:36:11;99075.09;;;2.04;99.34
51972;BME280;37991;49.662;10.060;2022-12-04T06:38:37;99079.22;;;2.08;99.22
51972;BME280;37991;49.662;10.060;2022-12-04T06:41:07;99067.50;;;2.00;98.78
51972;BME280;37991;49.662;10.060;2022-12-04T06:43:33;99072.38;;;2.07;98.49
51972;BME280;37991;49.662;10.060;2022-12-04T06:46:08;99075.00;;;2.06;98.48
51972;BME280;37991;49.662;10.060;2022-12-04T06:48:34;99074.97;;;2.07;99.05
51972;BME280;37991;49.662;10.060;2022-12-04T06:51:03;99078.06;;;2.16;99.27
51972;BME280;37991;49.662;10.060;2022-12-04T06:53:30;99083.09;;;2.20;99.31
51972;BME280;37991;49.662;10.060;2022-12-04T06:55:57;99072.75;;;2.20;99.62
51972;BME280;37991;49.662;10.060;2022-12-04T06:58:24;99078.88;;;2.18;98.90
51972;BME280;37991;49.662;10.060;2022-12-04T07:00:50;99076.28;;;2.18;99.52
51972;BME280;37991;49.662;10.060;2022-12-04T07:03:15;99085.47;;;2.25;99.63
51972;BME280;37991;49.662;10.060;2022-12-04T07:05:41;99081.00;;;2.28;99.29
51972;BME280;37991;49.662;10.060;2022-12-04T07:08:06;99084.31;;;2.32;99.13
51972;BME280;37991;49.662;10.060;2022-12-04T07:10:34;99078.19;;;2.35;99.30
51972;BME280;37991;49.662;10.060;2022-12-04T07:13:00;99074.56;;;2.39;99.46
51972;BME280;37991;49.662;10.060;2022-12-04T07:15:25;99078.19;;;2.35;98.73
51972;BME280;37991;49.662;10.060;2022-12-04T07:17:51;99064.22;;;2.39;98.82
51972;BME280;37991;49.662;10.060;2022-12-04T07:20:16;99063.22;;;2.43;98.68
51972;BME280;37991;49.662;10.060;2022-12-04T07:22:41;99064.03;;;2.43;97.90
51972;BME280;37991;49.662;10.060;2022-12-04T07:25:07;99071.56;;;2.49;98.26
51972;BME280;37991;49.662;10.060;2022-12-04T07:27:33;99069.22;;;2.43;96.99
51972;BME280;37991;49.662;10.060;2022-12-04T07:29:58;99056.59;;;2.36;96.78
51972;BME280;37991;49.662;10.060;2022-12-04T07:32:23;99050.47;;;2.38;96.00
51972;BME280;37991;49.662;10.060;2022-12-04T07:34:49;99047.78;;;2.19;96.88
51972;BME280;37991;49.662;10.060;2022-12-04T07:37:15;99046.03;;;2.20;96.77
51972;BME280;37991;49.662;10.060;2022-12-04T07:39:41;99050.19;;;2.24;97.83
51972;BME280;37991;49.662;10.060;2022-12-04T07:42:06;99058.78;;;2.24;98.05
51972;BME280;37991;49.662;10.060;2022-12-04T07:44:31;99058.81;;;2.23;98.47
51972;BME280;37991;49.662;10.060;2022-12-04T07:46:57;99052.06;;;2.20;98.65
51972;BME280;37991;49.662;10.060;2022-12-04T07:49:22;99059.50;;;2.28;98.78
51972;BME280;37991;49.662;10.060;2022-12-04T07:51:48;99052.53;;;2.30;98.91
51972;BME280;37991;49.662;10.060;2022-12-04T07:54:14;99051.38;;;2.37;98.88
51972;BME280;37991;49.662;10.060;2022-12-04T07:56:40;99057.28;;;2.39;97.12
51972;BME280;37991;49.662;10.060;2022-12-04T07:59:05;99058.41;;;2.33;96.82
51972;BME280;37991;49.662;10.060;2022-12-04T08:01:31;99058.34;;;2.35;97.29
51972;BME280;37991;49.662;10.060;2022-12-04T08:03:58;99055.88;;;2.32;96.63
51972;BME280;37991;49.662;10.060;2022-12-04T08:06:26;99066.88;;;2.37;97.59
51972;BME280;37991;49.662;10.060;2022-12-04T08:08:52;99060.50;;;2.46;97.71
51972;BME280;37991;49.662;10.060;2022-12-04T08:11:20;99049.81;;;2.33;97.60
51972;BME280;37991;49.662;10.060;2022-12-04T08:13:56;99051.63;;;2.31;97.09
51972;BME280;37991;49.662;10.060;2022-12-04T08:16:22;99056.66;;;2.34;97.64
51972;BME280;37991;49.662;10.060;2022-12-04T08:18:48;99060.22;;;2.31;97.80
51972;BME280;37991;49.662;10.060;2022-12-04T08:21:16;99070.50;;;2.33;98.14
51972;BME280;37991;49.662;10.060;2022-12-04T08:23:43;99058.28;;;2.37;98.80
51972;BME280;37991;49.662;10.060;2022-12-04T08:26:10;99059.16;;;2.36;97.93
51972;BME280;37991;49.662;10.060;2022-12-04T08:28:36;99061.75;;;2.36;98.19
51972;BME280;37991;49.662;10.060;2022-12-04T08:31:03;99065.25;;;2.35;98.12
51972;BME280;37991;49.662;10.060;2022-12-04T08:33:30;99058.88;;;2.43;97.98
51972;BME280;37991;49.662;10.060;2022-12-04T08:35:56;99057.03;;;2.45;98.41
51972;BME280;37991;49.662;10.060;2022-12-04T08:38:21;99066.13;;;2.55;98.69
51972;BME280;37991;49.662;10.060;2022-12-04T08:40:46;99077.22;;;2.58;98.05
51972;BME280;37991;49.662;10.060;2022-12-04T08:43:12;99076.59;;;2.52;97.36
51972;BME280;37991;49.662;10.060;2022-12-04T08:45:37;99079.69;;;2.61;97.56
51972;BME280;37991;49.662;10.060;2022-12-04T08:48:03;99080.06;;;2.51;97.75
51972;BME280;37991;49.662;10.060;2022-12-04T08:50:28;99081.69;;;2.54;97.62
51972;BME280;37991;49.662;10.060;2022-12-04T08:52:54;99076.22;;;2.62;96.61
51972;BME280;37991;49.662;10.060;2022-12-04T08:55:19;99076.22;;;2.62;96.74
51972;BME280;37991;49.662;10.060;2022-12-04T08:57:44;99081.25;;;2.65;97.65
51972;BME280;37991;49.662;10.060;2022-12-04T09:00:10;99072.63;;;2.64;97.08
51972;BME280;37991;49.662;10.060;2022-12-04T09:02:37;99075.81;;;2.71;96.82
51972;BME280;37991;49.662;10.060;2022-12-04T09:05:02;99074.13;;;2.70;96.23
51972;BME280;37991;49.662;10.060;2022-12-04T09:07:28;99083.25;;;2.58;96.35
51972;BME280;37991;49.662;10.060;2022-12-04T09:09:53;99082.16;;;2.64;97.10
51972;BME280;37991;49.662;10.060;2022-12-04T09:12:19;99084.56;;;2.68;97.26
51972;BME280;37991;49.662;10.060;2022-12-04T09:14:44;99074.13;;;2.70;97.39
51972;BME280;37991;49.662;10.060;2022-12-04T09:17:09;99065.91;;;2.80;97.52
51972;BME280;37991;49.662;10.060;2022-12-04T09:19:35;99077.13;;;2.81;96.42
51972;BME280;37991;49.662;10.060;2022-12-04T09:22:01;99087.59;;;2.78;96.70
51972;BME280;37991;49.662;10.060;2022-12-04T09:24:29;99092.00;;;2.76;97.02
51972;BME280;37991;49.662;10.060;2022-12-04T09:26:55;99082.94;;;2.86;96.95
51972;BME280;37991;49.662;10.060;2022-12-04T09:29:20;99070.69;;;2.90;96.24
51972;BME280;37991;49.662;10.060;2022-12-04T09:31:45;99072.66;;;2.85;96.91
51972;BME280;37991;49.662;10.060;2022-12-04T09:34:11;99074.41;;;2.84;96.48
51972;BME280;37991;49.662;10.060;2022-12-04T09:36:36;99072.91;;;2.78;95.71
51972;BME280;37991;49.662;10.060;2022-12-04T09:39:02;99067.91;;;2.74;96.35
51972;BME280;37991;49.662;10.060;2022-12-04T09:44:29;99063.75;;;2.71;96.88
51972;BME280;37991;49.662;10.060;2022-12-04T09:47:01;99048.22;;;2.71;96.34
51972;BME280;37991;49.662;10.060;2022-12-04T09:49:41;99041.34;;;2.70;96.92
51972;BME280;37991;49.662;10.060;2022-12-04T09:52:23;99049.50;;;2.61;97.57
51972;BME280;37991;49.662;10.060;2022-12-04T09:54:51;99052.66;;;2.68;97.86
51972;BME280;37991;49.662;10.060;2022-12-04T09:57:27;99053.63;;;2.86;96.83
51972;BME280;37991;49.662;10.060;2022-12-04T09:59:56;99054.72;;;2.80;96.93
51972;BME280;37991;49.662;10.060;2022-12-04T10:02:34;99048.19;;;2.92;96.81
51972;BME280;37991;49.662;10.060;2022-12-04T10:05:02;99037.19;;;2.87;96.82
51972;BME280;37991;49.662;10.060;2022-12-04T10:10:15;99026.63;;;2.72;96.97
51972;BME280;37991;49.662;10.060;2022-12-04T10:12:58;99027.19;;;2.79;96.94
51972;BME280;37991;49.662;10.060;2022-12-04T10:15:48;99016.69;;;2.82;96.70
51972;BME280;37991;49.662;10.060;2022-12-04T10:26:32;99014.16;;;2.80;96.93
51972;BME280;37991;49.662;10.060;2022-12-04T10:29:03;99012.75;;;2.73;97.63
51972;BME280;37991;49.662;10.060;2022-12-04T10:31:32;99020.47;;;2.75;97.91
51972;BME280;37991;49.662;10.060;2022-12-04T10:34:17;99019.63;;;2.74;98.13
51972;BME280;37991;49.662;10.060;2022-12-04T10:36:49;99018.25;;;2.86;97.64
51972;BME280;37991;49.662;10.060;2022-12-04T10:39:23;99015.59;;;2.88;97.90
51972;BME280;37991;49.662;10.060;2022-12-04T10:41:57;99007.97;;;2.85;97.79
51972;BME280;37991;49.662;10.060;2022-12-04T10:44:23;98999.25;;;3.06;96.92
51972;BME280;37991;49.662;10.060;2022-12-04T10:46:53;99001.22;;;3.01;96.70
51972;BME280;37991;49.662;10.060;2022-12-04T10:49:27;98999.03;;;2.92;97.04
51972;BME280;37991;49.662;10.060;2022-12-04T10:51:54;99000.66;;;2.94;97.57
51972;BME280;37991;49.662;10.060;2022-12-04T10:54:34;98998.31;;;2.88;98.21
51972;BME280;37991;49.662;10.060;2022-12-04T10:57:05;98988.13;;;2.85;97.85
51972;BME280;37991;49.662;10.060;2022-12-04T10:59:32;98986.78;;;2.95;98.39
51972;BME280;37991;49.662;10.060;2022-12-04T11:02:00;98982.41;;;2.97;97.91
51972;BME280;37991;49.662;10.060;2022-12-04T11:04:29;98976.16;;;3.01;97.53
51972;BME280;37991;49.662;10.060;2022-12-04T11:07:07;98972.03;;;2.97;97.45
51972;BME280;37991;49.662;10.060;2022-12-04T11:09:40;98968.69;;;2.95;97.71
51972;BME280;37991;49.662;10.060;2022-12-04T11:12:17;98970.28;;;2.98;97.89
51972;BME280;37991;49.662;10.060;2022-12-04T11:14:43;98966.09;;;2.95;98.19
51972;BME280;37991;49.662;10.060;2022-12-04T11:17:16;98957.97;;;2.84;98.40
51972;BME280;37991;49.662;10.060;2022-12-04T11:19:42;98957.53;;;2.93;98.81
51972;BME280;37991;49.662;10.060;2022-12-04T11:22:16;98949.63;;;2.96;98.11
51972;BME280;37991;49.662;10.060;2022-12-04T11:24:49;98938.88;;;3.06;97.74
51972;BME280;37991;49.662;10.060;2022-12-04T11:27:30;98937.56;;;2.97;98.40
51972;BME280;37991;49.662;10.060;2022-12-04T11:30:00;98935.88;;;2.96;98.16
51972;BME280;37991;49.662;10.060;2022-12-04T11:32:31;98943.72;;;2.94;98.60
51972;BME280;37991;49.662;10.060;2022-12-04T11:35:21;98952.19;;;2.98;97.82
51972;BME280;37991;49.662;10.060;2022-12-04T11:38:21;98941.81;;;2.98;97.90
51972;BME280;37991;49.662;10.060;2022-12-04T11:40:50;98944.59;;;2.93;98.81
51972;BME280;37991;49.662;10.060;2022-12-04T11:43:17;98948.47;;;3.03;98.42
51972;BME280;37991;49.662;10.060;2022-12-04T11:45:57;98944.31;;;2.99;98.82
51972;BME280;37991;49.662;10.060;2022-12-04T11:48:24;98954.28;;;3.09;98.42
51972;BME280;37991;49.662;10.060;2022-12-04T11:56:32;98938.53;;;3.13;98.53
51972;BME280;37991;49.662;10.060;2022-12-04T11:59:17;98933.78;;;3.23;98.02
51972;BME280;37991;49.662;10.060;2022-12-04T12:05:07;98930.28;;;3.24;98.33
51972;BME280;37991;49.662;10.060;2022-12-04T12:10:59;98931.75;;;3.30;97.65
51972;BME280;37991;49.662;10.060;2022-12-04T12:16:55;98930.22;;;3.25;97.92
51972;BME280;37991;49.662;10.060;2022-12-04T12:19:59;98931.47;;;3.36;97.42
51972;BME280;37991;49.662;10.060;2022-12-04T12:33:56;98919.41;;;3.35;98.03
51972;BME280;37991;49.662;10.060;2022-12-04T12:36:25;98921.41;;;3.47;97.42
51972;BME280;37991;49.662;10.060;2022-12-04T12:38:58;98924.25;;;3.42;97.82
51972;BME280;37991;49.662;10.060;2022-12-04T12:41:38;98920.59;;;3.46;97.84
51972;BME280;37991;49.662;10.060;2022-12-04T12:47:10;98908.25;;;3.52;97.04
51972;BME280;37991;49.662;10.060;2022-12-04T12:50:08;98909.84;;;3.54;96.27
51972;BME280;37991;49.662;10.060;2022-12-04T12:53:02;98908.84;;;3.39;97.12
51972;BME280;37991;49.662;10.060;2022-12-04T12:55:34;98912.97;;;3.43;97.70
51972;BME280;37991;49.662;10.060;2022-12-04T12:58:17;98898.53;;;3.38;97.56
51972;BME280;37991;49.662;10.060;2022-12-04T13:01:07;98893.16;;;3.42;97.20
51972;BME280;37991;49.662;10.060;2022-12-04T13:03:56;98892.50;;;3.56;96.67
51972;BME280;37991;49.662;10.060;2022-12-04T13:06:37;98889.06;;;3.56;97.12
51972;BME280;37991;49.662;10.060;2022-12-04T13:09:17;98881.84;;;3.62;96.33
51972;BME280;37991;49.662;10.060;2022-12-04T13:11:46;98881.44;;;3.53;96.71
51972;BME280;37991;49.662;10.060;2022-12-04T13:14:14;98883.19;;;3.52;96.66
51972;BME280;37991;49.662;10.060;2022-12-04T13:16:43;98880.50;;;3.54;96.66
51972;BME280;37991;49.662;10.060;2022-12-04T13:19:18;98878.69;;;3.56;97.08
51972;BME280;37991;49.662;10.060;2022-12-04T13:22:15;98883.09;;;3.54;97.23
51972;BME280;37991;49.662;10.060;2022-12-04T13:30:11;98877.47;;;3.63;97.00
51972;BME280;37991;49.662;10.060;2022-12-04T13:32:51;98879.63;;;3.55;97.53
51972;BME280;37991;49.662;10.060;2022-12-04T13:38:27;98873.06;;;3.65;97.07
51972;BME280;37991;49.662;10.060;2022-12-04T13:40:58;98874.91;;;3.63;97.05
51972;BME280;37991;49.662;10.060;2022-12-04T13:46:21;98871.72;;;3.58;97.46
51972;BME280;37991;49.662;10.060;2022-12-04T13:48:48;98874.22;;;3.59;97.60
51972;BME280;37991;49.662;10.060;2022-12-04T13:53:40;98869.88;;;3.60;97.04
51972;BME280;37991;49.662;10.060;2022-12-04T13:56:23;98861.25;;;3.59;97.44
51972;BME280;37991;49.662;10.060;2022-12-04T13:59:05;98864.78;;;3.58;97.21
51972;BME280;37991;49.662;10.060;2022-12-04T14:01:44;98862.47;;;3.69;97.09
51972;BME280;37991;49.662;10.060;2022-12-04T14:04:36;98860.72;;;3.53;97.84
51972;BME280;37991;49.662;10.060;2022-12-04T14:07:04;98858.81;;;3.56;97.84
51972;BME280;37991;49.662;10.060;2022-12-04T14:09:47;98866.53;;;3.58;98.40
51972;BME280;37991;49.662;10.060;2022-12-04T14:12:14;98864.09;;;3.55;98.48
51972;BME280;37991;49.662;10.060;2022-12-04T14:14:49;98867.13;;;3.63;98.63
51972;BME280;37991;49.662;10.060;2022-12-04T14:17:18;98868.03;;;3.62;97.93
51972;BME280;37991;49.662;10.060;2022-12-04T14:19:50;98872.97;;;3.66;97.91
51972;BME280;37991;49.662;10.060;2022-12-04T14:30:15;98861.03;;;3.64;98.42
51972;BME280;37991;49.662;10.060;2022-12-04T14:32:42;98865.00;;;3.71;98.72
51972;BME280;37991;49.662;10.060;2022-12-04T14:35:18;98862.03;;;3.79;97.55
51972;BME280;37991;49.662;10.060;2022-12-04T14:38:04;98862.41;;;3.71;98.39
51972;BME280;37991;49.662;10.060;2022-12-04T14:40:37;98864.75;;;3.76;98.32
51972;BME280;37991;49.662;10.060;2022-12-04T14:43:15;98866.28;;;3.80;98.04
51972;BME280;37991;49.662;10.060;2022-12-04T14:45:57;98871.69;;;3.75;97.90
51972;BME280;37991;49.662;10.060;2022-12-04T14:48:34;98875.75;;;3.81;98.06
51972;BME280;37991;49.662;10.060;2022-12-04T14:51:20;98878.19;;;3.84;98.34
51972;BME280;37991;49.662;10.060;2022-12-04T14:53:54;98879.84;;;3.85;99.07